This site, now in its 15th season, is a labour of love and fun from one of Ottawa's most avid time trialists and number crunchers. It adheres to and is permitted by the laws of Canada, promotes the objectives of every bicycle club whose results are shown, and is donated free of charge by myself for your enjoyment and usage. If you would like results from series you ride in to be shown here, give me (celia@drmath.ca) a shout!


Index Page
ATT OTT WTT AATT CFCTT VVVTT
Help resultformat:
Case-sensitive

OBC Open TT Series - 2010-May-27 - 15km (Rockliffe Pkwy) (EvtFactor = 0.9486)

Weather (18:00): Mostly Cloudy. Temp.: 26C, Humidity: 38%, Dew Point: 11C, Wind: E 8km/h, Pressure: 101.1kPa, Vis: 24km, Humidex: 27.
Weather (19:00): Mainly Sunny. Temp.: 25C, Humidity: 39%, Dew Point: 10C, Wind: ENE 5km/h, Pressure: 101.1kPa, Vis: 24km, Humidex: 26.
Weather (20:00): Partly Cloudy. Temp.: 24C, Humidity: 41%, Dew Point: 10C, Wind: 0km/h, Pressure: 101.2kPa, Vis: 24km, Humidex: 25.

Send photos with description (when/where/what) of yourself on or off of bike to celia@drmath.ca

Nearly one hundred riders came out tonight and there were some fantastic times! The women were led by Jennifer Stephenson who went sub 21 minutes for the first time, while Cynthia Wilson, who upped her previous best speed by nearly 1 km/h, is rapidly making her way down, and third place Allison McKay also set a new PB. Note that Jennifer's time is currently the best in the VAF category. Though first and second place males Aaron Fillion and Warren MacDonald did not set PBs, they did, once again, do sub-19 minute times. On the other hand, third place male, Alex Cataford not only set a personal best, but he also set a new Junior Male record category. Congratulations also go to Craig Hawkes who broke through the 20 minute for the first time. Overall, 74 of the 81 participants who had completed an earlier 2010 15km OTT event, improved upon their season series best, while 47 out of 91 riders equalled or bettered their previos 15km database best. Note that nine people have done all five events so far, and of these, Nocolas Dery is the only one to improve every time out. Way to go!

These results were first posted on the OBC site circa 20:00 on 2010-May-31 and are available here for your added pleasure and analysis.

(Note that I'd gladly type in the results each time, getting the results up within a few of hours of the event, as I did for the WTT series for the decade beginning in 1998, and for the OTT series from 1999-2002 and again in 2006. Regardless, I will continue to donate this statistical time trial result service to you, even though doing so has, surprisingly, resulted in my EXPULSION from the OBC ! I guess I must at least thank the OBC executive for taking on the grunt work and leaving me to do just the more interesting side of my result service, but I do want to make it absolutely clear that I would gladly help the OBC Board input the results, lest complaints about me just lazily sucking in the results surface! The choice is theirs. If they want the help, I'm here and will do it - even if I remain expelled! Such is my level of dedication to public service and disinterest in private politics.)

 
 

BESTS?
 
1 Fillion, Aaron  OBC/RWR 18:31 48.605 1/99 VAM 1/16 1.0804
2 MacDonald, Warren  OBC 18:58 47.452 2/99 VAM 2/16 1.0482
Y 3 Cataford, Alex OBC 19:18 46.632 3/99 JUM 1/1 1.1665
4 Hawkes, Craig CYC 19:52 45.302 4/99 VAM 3/16 1.1121
5 Martel, Brad RWR 19:59 45.038 5/99 VBM 1/14 1.0380
6 Tsilemos, Jim RWR 20:22 44.190 6/99 VBM 2/14 1.0474
7 Reid, Chris  RWR 20:26 44.046 7/99 SEM 1/7 1.1380
8 Dal-Cin, Matteo  EUR 20:35 43.725 8/99 SEM 2/7 0.8416
9 Katz, Joel  OBC/RWR 20:43 43.443 9/99 VCM 1/19 1.0491
10 King, Jason RWR 20:58 42.925 10/99 VBM 3/14 1.0682
Stephenson, Jennifer  OBC/ULT 20:58 42.925 10/99 VAF 1/11 1.0985
12 Campbell, Greg OBC 21:03 42.755 12/99 VAM 4/16 1.0905
13 Christie, Greg  OBC/RWR 21:06 42.654 13/99 VCM 2/19 1.0877
14 Nelson, Cynthia  RWR 21:14 42.386 14/99 VAF 2/11 1.0601
15 Michel, Alexandre  WQW 21:18 42.254 15/99 VAM 5/16 1.0746
16 Burge, Craig  CYC 21:22 42.122 16/99 VBM 4/14  
17 Armstrong, Brian OBC 21:24 42.056 17/99 VBM 5/14 1.0595
Budgell, Glen  OBC 21:24 42.056 17/99 VCM 3/19 0.9654
19 McKay, Allison  OBC/RDO 21:26 41.991 19/99 VBF 1/10 1.0644
20 Breton, Bernard --- 21:28 41.925 20/99 VBM 6/14  
Mullington, Chris WQW 21:28 41.925 20/99 VCM 4/19 1.0163
22 Cameron, Allen  OBC/RWR 21:31 41.828 22/99 VCM 5/19 1.0305
Matte, Sophie  OBC 21:31 41.828 22/99 VAF 3/11 1.0164
24 Spooner, Tricia  SRC 21:43 41.443 24/99 VBF 2/10 1.0279
25 Munden, David --- 21:46 41.348 25/99 VAM 6/16 0.8032
26 Corner, Doug  OBC 21:47 41.316 26/99 VCM 6/19 1.1069
27 Konov, Sergei OBC 21:51 41.190 27/99 VAM 7/16 1.0324
28 Posthuma, Hans  OBC 22:05 40.755 28/99 VCM 7/19 1.0460
29 Morris, Steve --- 22:07 40.693 29/99 VBM 7/14 1.1369
30 Sargent, Larry OBC 22:13 40.510 30/99 VCM 8/19 1.0318
31 MacGregor, Moriah --- 22:16 40.419 31/99 VAF 4/11  
32 Skafel, Paul CYC 22:18 40.359 32/99 VAM 8/16 1.0502
33 Phelps, Ryan --- 22:29 40.030 33/99 VAM 9/16 1.1346
34 Gagnon, Jules OBC 22:35 39.852 34/99 VCM 9/19 1.1100
35 Dorego, Jean-Louis OBC 22:42 39.648 35/99 VCM 10/19 1.0447
36 Lampi, Allison --- 22:47 39.503 36/99 VAF 5/11 1.0446
37 Blais, Bob OBC 22:48 39.474 37/99 VCM 11/19 1.1446
38 McKay, Andrea  OBC 22:56 39.244 38/99 VBF 3/10 1.0044
39 Graves, Lasse --- 22:57 39.216 39/99 VAM 10/16  
40 Schattmann, Peter OBC 22:58 39.187 40/99 VCM 12/19 1.0044
41 De Haitre, Vincent OBC 22:59 39.159 41/99 CAM 1/3 1.1387
42 Monast-Dore, Maxime OBC 23:04 39.017 42/99 CAM 2/3 1.1595
43 Blagdon, Wendy  CYC 23:05 38.989 43/99 VBF 4/10 1.0395
44 Reissner, Leslie OBC 23:07 38.933 44/99 VCM 13/19 1.1711
45 Davy, Andrew OBC 23:17 38.654 45/99 SEM 3/7  
46 Leboeuf, Maxime OBC 23:18 38.627 46/99 CAM 3/3 1.0458
Locke, Peter WQW 23:18 38.627 46/99 VCM 14/19 2.0297
Rudnicki, Dave WQW 23:18 38.627 46/99 VBM 8/14 1.1555
49 Coudé, Martin EUR 23:30 38.298 49/99 SEM 4/7 1.0898
50 Darville, Courtnay  OBC/CYF 23:38 38.082 50/99 VAF 6/11 1.0256
51 Hayes, James OBC 23:43 37.948 51/99 SEM 5/7 1.0668
52 Wong, Adrian OBC 23:44 37.921 52/99 VAM 11/16 1.2306
53 Momtahan, Parham  OBC 23:45 37.895 53/99 VCM 15/19 1.0557
54 Deavy, Carol  OBC 23:48 37.815 54/99 VBF 5/10 1.0426
55 Gee, Derek  OBC 23:54 37.657 55/99 MIM 1/3 1.0994
56 Samborsky, Mark OBC 24:02 37.448 56/99 VBM 9/14 1.0833
57 Marleau, Dianne  OBC/RWR 24:05 37.370 57/99 VBF 6/10 0.9570
58 Ingham, Alison  OBC/RWR 24:11 37.216 58/99 VBF 7/10 1.2912
59 Austen, Timothy OBC 24:13 37.164 59/99 MIM 2/3  
60 Nesdoly, Nina  OBC 24:15 37.113 60/99 JUF 1/1 1.0249
61 Wolfson, Naomi Lynne OBC 24:16 37.088 61/99 SEF 1/5 1.0674
62 Asselin, Alexis OBC 24:20 36.986 62/99 VAM 12/16  
63 Lacasse, Jeremie  OBC 24:24 36.885 63/99 MIM 3/3 1.1258
64 Sinkus, Jason OBC 24:26 36.835 64/99 VAM 13/16  
65 Déry, Nicolas  OBC 24:31 36.710 65/99 VAM 14/16 1.0185
66 Desjardins, Marcel OBC 24:39 36.511 66/99 VDM 1/1 1.0246
67 Yardley, Jane  OBC 24:41 36.462 67/99 VAF 7/11 1.0704
68 Meyer, Lisa  OBC 24:42 36.437 68/99 VCF 1/6 1.2443
69 Austen, Ian  OBC 24:49 36.266 69/99 VCM 16/19 1.0244
Czaban, Christina  OBC 24:49 36.266 69/99 SEF 2/5  
Gustyn, Andrew OBC 24:49 36.266 69/99 VBM 10/14  
72 Janusauskas, Vytas  OBC 24:51 36.217 72/99 VCM 17/19 1.1256
73 McInnis, Celia  ABC/CYF 24:53 36.169 73/99 VCF 2/6 1.0244
74 Dionne, Suzanne  OBC 24:59 36.024 74/99 VCF 3/6 1.0242
75 Wilson, Ali --- 25:11 35.738 75/99 SEF 3/5 1.1829
76 Konantz, Patricia  OBC/RWR 25:14 35.667 76/99 VCF 4/6 1.0019
77 Gagnon, Genevieve  CYF 25:19 35.550 77/99 SEF 4/5 1.0728
78 Liversidge, Doug OBC 25:21 35.503 78/99 VBM 11/14  
79 Nesrallah, Summer CYF 25:24 35.433 79/99 SEF 5/5 1.0561
80 Crichton, Nicole OBC 25:26 35.387 80/99 VAF 8/11 0.9728
81 Levi, Cheryl OBC 25:38 35.111 81/99 VBF 8/10 1.1774
82 Woodstock, Carole OBC 25:39 35.088 82/99 VBF 9/10  
83 Xie, Bailin  OBC 25:41 35.042 83/99 MIF 1/1 1.1214
84 Rees, Stephanie  OBC 25:44 34.974 84/99 VAF 9/11 1.0020
85 McGarry, Martin OBC 25:46 34.929 85/99 VAM 15/16 1.3039
86 Kline, Patrick OBC 25:47 34.906 86/99 VCM 18/19  
87 Winkel, Koert --- 26:01 34.593 87/99 VBM 12/14  
88 Dal-Cin, Mauro EUR 26:19 34.199 88/99 VCM 19/19 0.9792
89 Crowe, Sean OBC 26:26 34.048 89/99 VBM 13/14 1.0617
90 Roach, John OBC 27:10 33.129 90/99 VBM 14/14 1.1997
91 Boudreau, Lucie  OBC 27:13 33.068 91/99 VCF 5/6 1.1503
92 McLaren, Louise  OBC 27:15 33.028 92/99 VBF 10/10 0.9674
93 Chean, Benjamin OBC 27:19 32.947 93/99 SEM 6/7  
94 Damen, Lynda  OBC 27:27 32.787 94/99 VCF 6/6 1.2203
95 Chiesa, Maria OBC 27:37 32.589 95/99 VAF 10/11  
96 Eritou, Brent OBC 28:02 32.105 96/99 SEM 7/7  
Johnson, Laura  OBC/CYF 28:02 32.105 96/99 VAF 11/11 1.0957
98 Portelance, Marianne --- 28:30 31.579 98/99 CAF 1/1  
99 LeBrun, Robert OBC 31:38 28.451 99/99 VAM 16/16 1.1353
 
Average Speed of all of the above 99 finishes (1485km in 38:59:45):38.081
>>>Average of the Average Speeds for these 99 finishes38.443<<<
 

The number of data records shown above is 99
The server processing of your query took: 0 wallclock secs ( 0.10 usr + 0.00 sys = 0.10 CPU)

Thanks to our Helpers: Avery Burdett, Alexandre Gagnon, Margot Hall, Gunter Hauschildt, Alex McKnight, Jacques Morvan.

     


Apr 2 (Good Friday)
May 4 (10km) May 6 May 11 (10km) May 13 May 18 May 18 (10km) May 20 May 25 May 25 (10km)
  May 27  
May 30 (40km) May 31 (10km)
Jun 1 Jun 1 Jun 3 Jun 8 Jun 8 Jun 10 Jun 14 (10km) Jun 15 Jun 15 Jun 17 Jun 22 (rained out) Jun 22 Jun 24 Jun 28 (10km) Jun 29 Jun 29
Jul 4 (40km) Jul 6 Jul 6 Jul 8 Jul 12 Jul 13 Jul 13 Jul 15 Jul 20 Jul 20 Jul 22 Jul 26 Jul 27 Jul 27 Jul 29
Aug 3 ((cancelled)) Aug 3 Aug 5 Aug 8 (40km) Aug 10 Aug 10 Aug 12 Aug 15 (40km) Aug 17 Aug 17 Aug 19 Aug 23 Aug 24 Aug 24 Aug 26 Aug 31 Aug 31 (Invitational)
Sep 2 Sep 7 Sep 9 Sep 12 (40km) Sep 14 Sep 19 (40km) Sep 21 Sep 28

OTT Rankings
Best       Best by category
WTT Rankings for All Participants
4 Best Speeds (≥3 15km, ≤1 10km)     4 Best Speeds (≥3 15km, ≤1 10km) by category
OTT Best Three 15km Rankings
Overall     by category     age-Hcap Female   age-Hcap Male
[OWA]TT BAR Ranking
Overall     by category     Rider "Consistency-Graph"
ABC BAR Ranking
Overall     by category     Rider "Consistency-Graph"
Other years
TT Calculator All TT People All TT events
ABC Home VVV Home
CKAP GOLD MEDAL
Other Links

Note: OTT data from 2003 through 2006-Apr-14 and 2007-Apr-06-? and WTT from 2008-? is taken from the official OBC site.

Please send your comments and suggestions to: Celia McInnis
Copyright © 1998-2011 Celia McInnis. All rights reserved. Links are welcomed.